ESNN

Sundsvall-Härnösand Airport

Sundsvall/ Härnösand, Sweden
METAR ESNN 172120Z AUTO 11005KT 8000 -SN BKN016/// OVC019/// M03/M04 Q1024
Observed Flight Rules
Feb-17 @ 21:20 UTC (12 minutes ago) Marginal Visual Flight Rules
Wind Visibility Clouds Conditions
110° at 5 knots 7,998 meters
  • Broken at 1,600' AGL
  • Overcast at 1,900' AGL
  • Light Snow
Temperatures Readings
Current -3°C / 27°F
Dewpoint -4°C / 25°F
Humidity 93%
Altimeter 30.24" Hg
Pressure 1024 hPa
Elevation 10
METAR ESNN 172120Z AUTO 11005KT 8000 -SN BKN016/// OVC019/// M03/M04 Q1024
Observed Flight Rules
Feb-17 @ 21:20 UTC
(12 minutes ago)
MVFR
Wind Visibility
110° at 5 knots 7,998 meters
Clouds
  • Broken at 1,600' AGL
  • Overcast at 1,900' AGL
Conditions
  • Light Snow
Temperature Dewpoint
-3°C / 27°F -4°C / 25°F
Humidity Altimeter Pressure
93% 30.24" Hg 1024 hPa